createdAt,value
2023-05-15T00:00:47.872Z,0.64
2023-05-15T00:01:47.890Z,0.64
2023-05-15T00:02:48.011Z,0.63
2023-05-15T00:03:48.016Z,0.63
2023-05-15T00:04:48.038Z,0.63
2023-05-15T00:05:48.024Z,0.64
2023-05-15T00:06:48.052Z,0.63
2023-05-15T00:07:48.095Z,0.64
2023-05-15T00:08:48.122Z,0.62
2023-05-15T00:09:48.167Z,0.63
2023-05-15T00:11:00.840Z,0.64
2023-05-15T00:11:49.198Z,0.64
2023-05-15T00:12:48.202Z,0.64
2023-05-15T00:13:48.194Z,0.64
2023-05-15T00:14:48.173Z,0.64
2023-05-15T00:15:48.175Z,0.63
2023-05-15T00:16:48.154Z,0.64
2023-05-15T00:17:48.192Z,0.63
2023-05-15T00:18:48.199Z,0.63
2023-05-15T00:19:48.130Z,0.64
2023-05-15T00:20:48.111Z,0.64
2023-05-15T00:21:48.142Z,0.63
2023-05-15T00:22:48.107Z,0.64
2023-05-15T00:23:48.093Z,0.63
2023-05-15T00:24:48.111Z,0.63
2023-05-15T00:25:48.153Z,0.63
2023-05-15T00:26:48.204Z,0.63
2023-05-15T00:27:48.225Z,0.63
2023-05-15T00:28:48.254Z,0.62
2023-05-15T00:29:48.308Z,0.62
2023-05-15T00:30:48.372Z,0.63
2023-05-15T00:31:48.466Z,0.63
2023-05-15T00:32:48.484Z,0.63
2023-05-15T00:33:48.504Z,0.63
2023-05-15T00:34:48.542Z,0.62
2023-05-15T00:35:48.587Z,0.64
2023-05-15T00:36:48.615Z,0.64
2023-05-15T00:37:48.649Z,0.62
2023-05-15T00:38:48.711Z,0.63
2023-05-15T00:39:48.736Z,0.63
2023-05-15T00:40:48.874Z,0.63
2023-05-15T00:41:48.803Z,0.63
2023-05-15T00:42:48.846Z,0.63
2023-05-15T00:43:48.879Z,0.62
2023-05-15T00:44:48.908Z,0.63
2023-05-15T00:45:48.973Z,0.63
2023-05-15T00:46:49.021Z,0.63
2023-05-15T00:47:49.070Z,0.62
2023-05-15T00:48:49.052Z,0.62
2023-05-15T00:49:49.096Z,0.64
2023-05-15T00:50:49.154Z,0.62
2023-05-15T00:51:49.159Z,0.62
2023-05-15T00:52:49.195Z,0.62
2023-05-15T00:53:49.249Z,0.63
2023-05-15T00:54:49.262Z,0.63
2023-05-15T00:55:49.295Z,0.62
2023-05-15T00:56:49.324Z,0.63
2023-05-15T00:57:49.376Z,0.63
2023-05-15T00:58:49.404Z,0.62
2023-05-15T00:59:49.439Z,0.62
2023-05-15T01:00:49.511Z,0.62
2023-05-15T01:01:49.516Z,0.63
2023-05-15T01:02:49.655Z,0.63
2023-05-15T01:03:49.623Z,0.63
2023-05-15T01:04:49.631Z,0.63
2023-05-15T01:05:49.682Z,0.62
2023-05-15T01:06:49.700Z,0.62
2023-05-15T01:07:49.735Z,0.62
2023-05-15T01:08:49.787Z,0.62
2023-05-15T01:09:49.821Z,0.62
2023-05-15T01:10:50.193Z,0.63
2023-05-15T01:11:49.899Z,0.63
2023-05-15T01:12:49.926Z,0.62
2023-05-15T01:13:49.979Z,0.62
2023-05-15T01:14:50.014Z,0.62
2023-05-15T01:15:50.207Z,0.62
2023-05-15T01:16:50.087Z,0.62
2023-05-15T01:17:50.171Z,0.62
2023-05-15T01:18:50.198Z,0.62
2023-05-15T01:19:50.321Z,0.63
2023-05-15T01:20:50.277Z,0.62
2023-05-15T01:21:50.289Z,0.64
2023-05-15T01:22:50.338Z,0.62
2023-05-15T01:23:50.369Z,0.63
2023-05-15T01:24:50.411Z,0.62
2023-05-15T01:25:50.510Z,0.62
2023-05-15T01:26:50.514Z,0.61
2023-05-15T01:27:50.553Z,0.63
2023-05-15T01:28:50.579Z,0.62
2023-05-15T01:29:50.605Z,0.63
2023-05-15T01:30:50.684Z,0.62
2023-05-15T01:31:50.752Z,0.61
2023-05-15T01:32:50.754Z,0.62
2023-05-15T01:33:50.774Z,0.63
2023-05-15T01:34:50.796Z,0.63
2023-05-15T01:35:50.847Z,0.61
2023-05-15T01:36:50.888Z,0.62
2023-05-15T01:37:50.943Z,0.62
2023-05-15T01:38:50.975Z,0.62
2023-05-15T01:39:51.045Z,0.62
2023-05-15T01:40:51.046Z,0.62
2023-05-15T01:41:51.100Z,0.62
2023-05-15T01:42:51.130Z,0.62
2023-05-15T01:43:51.160Z,0.62
2023-05-15T01:44:51.237Z,0.61
2023-05-15T01:45:51.263Z,0.61
2023-05-15T01:46:51.319Z,0.62
2023-05-15T01:47:51.337Z,0.62
2023-05-15T01:48:51.361Z,0.62
2023-05-15T01:49:51.384Z,0.62
2023-05-15T01:50:51.455Z,0.61
2023-05-15T01:51:51.478Z,0.63
2023-05-15T01:52:51.508Z,0.62
2023-05-15T01:53:51.545Z,0.62
2023-05-15T01:54:51.569Z,0.62
2023-05-15T01:55:51.611Z,0.61
2023-05-15T01:56:51.630Z,0.62
2023-05-15T01:57:51.691Z,0.62
2023-05-15T01:58:51.714Z,0.62
2023-05-15T01:59:51.750Z,0.61
2023-05-15T02:00:51.982Z,0.62
2023-05-15T02:01:51.878Z,0.62
2023-05-15T02:02:51.920Z,0.62
2023-05-15T02:03:51.989Z,0.62
2023-05-15T02:04:51.973Z,0.62
2023-05-15T02:05:52.010Z,0.62
2023-05-15T02:06:52.042Z,0.62
2023-05-15T02:07:52.087Z,0.61
2023-05-15T02:08:52.134Z,0.62
2023-05-15T02:09:52.196Z,0.62
2023-05-15T02:10:52.242Z,0.61
2023-05-15T02:11:52.253Z,0.62
2023-05-15T02:12:52.299Z,0.61
2023-05-15T02:13:52.353Z,0.62
2023-05-15T02:14:52.393Z,0.61
2023-05-15T02:15:52.446Z,0.61
2023-05-15T02:16:52.476Z,0.61
2023-05-15T02:17:52.523Z,0.61
2023-05-15T02:18:52.785Z,0.61
2023-05-15T02:19:52.635Z,0.62
2023-05-15T02:20:52.694Z,0.61
2023-05-15T02:21:52.678Z,0.62
2023-05-15T02:22:52.720Z,0.61
2023-05-15T02:23:52.766Z,0.62
2023-05-15T02:24:52.814Z,0.61
2023-05-15T02:25:52.888Z,0.60
2023-05-15T02:26:52.930Z,0.61
2023-05-15T02:27:52.960Z,0.62
2023-05-15T02:28:53.000Z,0.61
2023-05-15T02:29:53.046Z,0.62
2023-05-15T02:30:53.082Z,0.61
2023-05-15T02:31:53.163Z,0.60
2023-05-15T02:32:53.211Z,0.61
2023-05-15T02:33:53.207Z,0.61
2023-05-15T02:34:53.240Z,0.61
2023-05-15T02:35:53.281Z,0.61
2023-05-15T02:36:53.329Z,0.61
2023-05-15T02:37:53.359Z,0.61
2023-05-15T02:38:53.406Z,0.61
2023-05-15T02:39:53.429Z,0.60
2023-05-15T02:40:53.516Z,0.61
2023-05-15T02:41:53.502Z,0.61
2023-05-15T02:42:53.564Z,0.61
2023-05-15T02:43:53.596Z,0.60
2023-05-15T02:44:53.635Z,0.62
2023-05-15T02:45:53.778Z,0.61
2023-05-15T02:46:53.730Z,0.61
2023-05-15T02:47:53.801Z,0.61
2023-05-15T02:48:53.801Z,0.61
2023-05-15T02:49:53.850Z,0.61
2023-05-15T02:50:53.908Z,0.60
2023-05-15T02:51:53.966Z,0.61
2023-05-15T02:52:53.958Z,0.60
2023-05-15T02:53:54.007Z,0.61
2023-05-15T02:54:54.035Z,0.61
2023-05-15T02:55:54.083Z,0.60
2023-05-15T02:56:54.133Z,0.61
2023-05-15T02:57:54.188Z,0.60
2023-05-15T02:58:54.234Z,0.60
2023-05-15T02:59:54.249Z,0.61
2023-05-15T03:00:54.400Z,0.61
2023-05-15T03:01:54.337Z,0.61
2023-05-15T03:02:54.431Z,0.62
2023-05-15T03:03:54.497Z,0.61
2023-05-15T03:04:54.503Z,0.60
2023-05-15T03:05:54.492Z,0.61
2023-05-15T03:06:54.542Z,0.60
2023-05-15T03:07:54.580Z,0.61
2023-05-15T03:08:54.626Z,0.61
2023-05-15T03:09:54.654Z,0.61
2023-05-15T03:10:54.702Z,0.60
2023-05-15T03:11:54.748Z,0.60
2023-05-15T03:12:54.781Z,0.60
2023-05-15T03:13:54.812Z,0.61
2023-05-15T03:14:54.857Z,0.61
2023-05-15T03:15:54.909Z,0.60
2023-05-15T03:16:55.031Z,0.61
2023-05-15T03:17:55.019Z,0.60
2023-05-15T03:18:55.059Z,0.60
2023-05-15T03:19:55.059Z,0.61
2023-05-15T03:20:55.094Z,0.60
2023-05-15T03:21:55.183Z,0.60
2023-05-15T03:22:55.200Z,0.60
2023-05-15T03:23:55.247Z,0.59
2023-05-15T03:24:55.281Z,0.61
2023-05-15T03:25:55.322Z,0.59
2023-05-15T03:26:55.370Z,0.60
2023-05-15T03:27:55.422Z,0.59
2023-05-15T03:28:55.449Z,0.60
2023-05-15T03:29:55.492Z,0.60
2023-05-15T03:30:55.551Z,0.60
2023-05-15T03:31:55.704Z,0.60
2023-05-15T03:32:55.644Z,0.58
2023-05-15T03:33:55.693Z,0.59
2023-05-15T03:34:55.719Z,0.59
2023-05-15T03:35:55.750Z,0.60
2023-05-15T03:36:55.802Z,0.60
2023-05-15T03:37:55.833Z,0.59
2023-05-15T03:38:55.874Z,0.59
2023-05-15T03:39:55.950Z,0.59
2023-05-15T03:40:55.969Z,0.59
2023-05-15T03:41:56.015Z,0.59
2023-05-15T03:42:56.047Z,0.60
2023-05-15T03:43:56.091Z,0.59
2023-05-15T03:44:56.155Z,0.60
2023-05-15T03:45:56.182Z,0.59
2023-05-15T03:46:56.431Z,0.59
2023-05-15T03:47:56.275Z,0.58
2023-05-15T03:48:56.345Z,0.60
2023-05-15T03:49:56.351Z,0.60
2023-05-15T03:50:56.444Z,0.58
2023-05-15T03:51:56.475Z,0.60
2023-05-15T03:52:56.483Z,0.59
2023-05-15T03:53:56.518Z,0.60
2023-05-15T03:54:56.570Z,0.59
2023-05-15T03:55:56.604Z,0.59
2023-05-15T03:56:56.642Z,0.59
2023-05-15T03:57:56.700Z,0.59
2023-05-15T03:58:56.744Z,0.59
2023-05-15T03:59:56.787Z,0.59
2023-05-15T04:00:56.830Z,0.60
2023-05-15T04:02:04.975Z,0.61
2023-05-15T04:02:57.940Z,0.61
2023-05-15T04:03:56.862Z,0.60
2023-05-15T04:04:56.882Z,0.60
2023-05-15T04:05:56.938Z,0.59
2023-05-15T04:06:56.836Z,0.60
2023-05-15T04:07:56.835Z,0.60
2023-05-15T04:08:56.822Z,0.60
2023-05-15T04:09:56.817Z,0.60
2023-05-15T04:10:56.817Z,0.60
2023-05-15T04:11:56.802Z,0.60
2023-05-15T04:12:56.797Z,0.59
2023-05-15T04:13:56.840Z,0.59
2023-05-15T04:14:56.894Z,0.60
2023-05-15T04:15:56.957Z,0.59
2023-05-15T04:16:56.985Z,0.58
2023-05-15T04:17:57.146Z,0.59
2023-05-15T04:18:57.119Z,0.59
2023-05-15T04:19:57.129Z,0.59
2023-05-15T04:20:57.164Z,0.59
2023-05-15T04:21:57.192Z,0.60
2023-05-15T04:22:57.256Z,0.59
2023-05-15T04:23:57.311Z,0.59
2023-05-15T04:24:57.344Z,0.60
2023-05-15T04:25:57.388Z,0.57
2023-05-15T04:26:57.472Z,0.60
2023-05-15T04:27:57.526Z,0.59
2023-05-15T04:29:58.525Z,0.58
2023-05-15T04:30:57.514Z,0.58
2023-05-15T04:31:57.585Z,0.58
2023-05-15T04:32:57.530Z,0.59
2023-05-15T04:33:57.488Z,0.59
2023-05-15T04:34:57.480Z,0.60
2023-05-15T04:35:57.500Z,0.58
2023-05-15T04:36:57.477Z,0.59
2023-05-15T04:37:57.464Z,0.59
2023-05-15T04:38:57.458Z,0.58
2023-05-15T04:39:57.482Z,0.59
2023-05-15T04:40:57.529Z,0.57
2023-05-15T04:41:57.581Z,0.58
2023-05-15T04:42:57.638Z,0.57
2023-05-15T04:43:57.680Z,0.58
2023-05-15T04:44:57.718Z,0.58
2023-05-15T04:45:57.827Z,0.57
2023-05-15T04:46:57.815Z,0.59
2023-05-15T04:47:57.894Z,0.58
2023-05-15T04:48:57.927Z,0.58
2023-05-15T04:49:57.961Z,0.59
2023-05-15T04:50:57.991Z,0.58
2023-05-15T04:51:58.037Z,0.58
2023-05-15T04:52:58.094Z,0.56
2023-05-15T04:53:58.137Z,0.58
2023-05-15T04:54:58.173Z,0.59
2023-05-15T04:55:58.280Z,0.59
2023-05-15T04:56:58.279Z,0.58
2023-05-15T04:57:58.312Z,0.58
2023-05-15T04:58:58.363Z,0.58
2023-05-15T04:59:58.454Z,0.58
2023-05-15T05:00:58.454Z,0.58
2023-05-15T05:01:58.559Z,0.58
2023-05-15T05:02:58.593Z,0.58
2023-05-15T05:03:58.700Z,0.57
2023-05-15T05:04:58.628Z,0.58
2023-05-15T05:05:58.656Z,0.58
2023-05-15T05:06:58.703Z,0.59
2023-05-15T05:07:58.768Z,0.57
2023-05-15T05:08:58.854Z,0.58
2023-05-15T05:09:58.902Z,0.57
2023-05-15T05:10:58.930Z,0.57
2023-05-15T05:11:58.953Z,0.58
2023-05-15T05:12:59.018Z,0.57
2023-05-15T05:13:59.051Z,0.58
2023-05-15T05:14:59.106Z,0.57
2023-05-15T05:15:59.245Z,0.57
2023-05-15T05:16:59.194Z,0.57
2023-05-15T05:17:59.333Z,0.58
2023-05-15T05:18:59.336Z,0.58
2023-05-15T05:19:59.352Z,0.57
2023-05-15T05:20:59.424Z,0.57
2023-05-15T05:21:59.478Z,0.57
2023-05-15T05:22:59.509Z,0.57
2023-05-15T05:23:59.553Z,0.57
2023-05-15T05:24:59.603Z,0.57
2023-05-15T05:25:59.649Z,0.56
2023-05-15T05:26:59.848Z,0.58
2023-05-15T05:27:59.755Z,0.57
2023-05-15T05:28:59.795Z,0.57
2023-05-15T05:29:59.845Z,0.56
2023-05-15T05:31:00.008Z,0.57
2023-05-15T05:32:00.517Z,0.60
2023-05-15T05:33:00.048Z,0.61
2023-05-15T05:34:00.075Z,0.66
2023-05-15T05:35:00.188Z,0.68
2023-05-15T05:36:00.210Z,0.69
2023-05-15T05:37:00.322Z,0.69
2023-05-15T05:38:00.315Z,0.73
2023-05-15T05:39:00.317Z,0.77
2023-05-15T05:40:00.340Z,0.80
2023-05-15T05:41:00.424Z,0.81
2023-05-15T05:42:00.424Z,0.83
2023-05-15T05:43:00.440Z,0.78
2023-05-15T05:44:00.459Z,0.86
2023-05-15T05:45:00.496Z,0.89
2023-05-15T05:46:00.551Z,0.94
2023-05-15T05:47:00.584Z,1.09
2023-05-15T05:48:00.636Z,1.09
2023-05-15T05:49:00.582Z,1.02
2023-05-15T05:50:00.609Z,1.00
2023-05-15T05:51:00.692Z,0.99
2023-05-15T05:52:00.672Z,0.96
2023-05-15T05:53:00.707Z,0.93
2023-05-15T05:54:00.695Z,0.93
2023-05-15T05:55:00.718Z,0.96
2023-05-15T05:56:00.828Z,0.95
2023-05-15T05:57:00.776Z,0.96
2023-05-15T05:58:01.267Z,0.97
2023-05-15T05:59:00.825Z,1.01
2023-05-15T06:00:00.817Z,1.12
2023-05-15T06:01:00.835Z,1.06
2023-05-15T06:02:01.412Z,1.01
2023-05-15T06:03:00.968Z,1.07
2023-05-15T06:04:00.963Z,1.08
2023-05-15T06:05:00.910Z,1.10
2023-05-15T06:06:00.937Z,1.07
2023-05-15T06:07:00.984Z,1.14
2023-05-15T06:08:00.947Z,1.15
2023-05-15T06:09:00.948Z,1.10
2023-05-15T06:10:00.958Z,1.12
2023-05-15T06:11:00.974Z,1.12
2023-05-15T06:12:00.987Z,1.13
2023-05-15T06:13:01.019Z,1.13
2023-05-15T06:14:00.978Z,1.19
2023-05-15T06:15:00.997Z,1.20
2023-05-15T06:16:00.988Z,1.20
2023-05-15T06:17:01.059Z,1.22
2023-05-15T06:18:01.060Z,1.22
2023-05-15T06:19:01.051Z,1.28
2023-05-15T06:20:00.998Z,1.27
2023-05-15T06:21:00.998Z,1.24
2023-05-15T06:22:01.004Z,1.26
2023-05-15T06:23:00.992Z,1.24
2023-05-15T06:24:00.992Z,1.27
2023-05-15T06:25:00.990Z,1.28
2023-05-15T06:26:00.981Z,1.27
2023-05-15T06:27:01.003Z,1.33
2023-05-15T06:28:00.974Z,1.23
2023-05-15T06:29:00.981Z,1.27
2023-05-15T06:30:00.975Z,1.33
2023-05-15T06:31:01.027Z,1.33
2023-05-15T06:32:01.001Z,1.33
2023-05-15T06:33:01.126Z,1.40
2023-05-15T06:34:00.961Z,1.37
2023-05-15T06:35:00.966Z,1.39
2023-05-15T06:36:01.002Z,1.36
2023-05-15T06:37:01.356Z,1.45
2023-05-15T06:38:00.963Z,1.46
2023-05-15T06:39:00.969Z,1.40
2023-05-15T06:40:01.044Z,1.48
2023-05-15T06:41:01.036Z,1.50
2023-05-15T06:42:01.072Z,1.55
2023-05-15T06:43:01.089Z,1.59
2023-05-15T06:44:01.111Z,1.60
2023-05-15T06:45:01.115Z,1.62
2023-05-15T06:46:01.244Z,1.67
2023-05-15T06:47:01.300Z,1.64
2023-05-15T06:48:02.115Z,1.70
2023-05-15T06:49:01.314Z,1.63
2023-05-15T06:50:01.360Z,1.65
2023-05-15T06:51:01.416Z,1.60
2023-05-15T06:52:01.469Z,1.52
2023-05-15T06:53:01.482Z,1.52
2023-05-15T06:54:01.546Z,1.53
2023-05-15T06:55:01.601Z,1.50
2023-05-15T06:56:01.548Z,1.53
2023-05-15T06:57:01.590Z,1.49
2023-05-15T06:58:01.648Z,1.50
2023-05-15T06:59:01.668Z,1.46
2023-05-15T07:00:01.733Z,1.40
2023-05-15T07:01:01.818Z,1.49
2023-05-15T07:02:01.935Z,1.51
2023-05-15T07:03:01.953Z,1.49
2023-05-15T07:04:01.980Z,1.52
2023-05-15T07:05:02.308Z,1.55
2023-05-15T07:06:02.054Z,1.46
2023-05-15T07:07:02.141Z,1.50
2023-05-15T07:08:02.206Z,1.40
2023-05-15T07:09:02.252Z,1.34
2023-05-15T07:10:02.285Z,1.39
2023-05-15T07:11:02.350Z,1.41
2023-05-15T07:12:02.388Z,1.32
2023-05-15T07:13:02.445Z,1.40
2023-05-15T07:14:02.533Z,1.44
2023-05-15T07:15:02.601Z,1.37
2023-05-15T07:16:02.609Z,1.34
2023-05-15T07:17:02.709Z,1.40
2023-05-15T07:18:02.829Z,1.45
2023-05-15T07:19:02.815Z,1.46
2023-05-15T07:20:02.843Z,1.47
2023-05-15T07:21:02.964Z,1.50
2023-05-15T07:22:03.575Z,1.50
2023-05-15T07:23:03.038Z,1.42
2023-05-15T07:24:03.089Z,1.38
2023-05-15T07:25:03.153Z,1.38
2023-05-15T07:26:03.194Z,1.38
2023-05-15T07:27:03.247Z,1.41
2023-05-15T07:28:03.317Z,1.36
2023-05-15T07:29:03.376Z,1.37
2023-05-15T07:30:03.430Z,1.43
2023-05-15T07:31:03.512Z,1.45
2023-05-15T07:32:03.689Z,1.47
2023-05-15T07:33:03.717Z,1.50
2023-05-15T07:34:03.688Z,1.53
2023-05-15T07:35:03.730Z,1.50
2023-05-15T07:36:03.778Z,1.51
2023-05-15T07:37:03.843Z,1.46
2023-05-15T07:38:03.940Z,1.53
2023-05-15T07:39:03.965Z,1.61
2023-05-15T07:40:04.012Z,1.64
2023-05-15T07:41:04.068Z,1.67
2023-05-15T07:42:04.152Z,1.68
2023-05-15T07:43:04.186Z,1.72
2023-05-15T07:44:04.233Z,1.72
2023-05-15T07:45:04.328Z,1.70
2023-05-15T07:46:04.406Z,1.74
2023-05-15T07:47:04.544Z,1.69
2023-05-15T07:48:04.540Z,1.68
2023-05-15T07:49:04.557Z,1.76
2023-05-15T07:50:04.586Z,1.80
2023-05-15T07:51:04.613Z,1.81
2023-05-15T07:52:04.736Z,1.81
2023-05-15T07:53:04.816Z,1.83
2023-05-15T07:54:04.774Z,1.86
2023-05-15T07:55:04.852Z,1.87
2023-05-15T07:56:04.884Z,1.80
2023-05-15T07:57:04.888Z,1.80
2023-05-15T07:58:04.941Z,1.90
2023-05-15T07:59:04.997Z,1.94
2023-05-15T08:00:04.999Z,1.95
2023-05-15T08:01:05.045Z,1.99
2023-05-15T08:02:05.089Z,2.02
2023-05-15T08:03:05.358Z,2.04
2023-05-15T08:04:05.216Z,2.10
2023-05-15T08:05:05.142Z,2.10
2023-05-15T08:06:05.217Z,2.13
2023-05-15T08:07:05.253Z,2.25
2023-05-15T08:08:05.270Z,2.26
2023-05-15T08:09:05.314Z,2.33
2023-05-15T08:10:05.271Z,2.30
2023-05-15T08:11:05.339Z,2.28
2023-05-15T08:12:05.312Z,2.35
2023-05-15T08:13:05.314Z,2.40
2023-05-15T08:14:05.422Z,2.35
2023-05-15T08:15:05.328Z,2.45
2023-05-15T08:16:05.409Z,2.44
2023-05-15T08:17:05.346Z,2.46
2023-05-15T08:18:05.397Z,2.45
2023-05-15T08:19:05.425Z,2.43
2023-05-15T08:20:05.381Z,2.49
2023-05-15T08:21:05.358Z,2.48
2023-05-15T08:22:05.369Z,2.50
2023-05-15T08:23:05.417Z,2.38
2023-05-15T08:24:05.380Z,2.45
2023-05-15T08:25:05.538Z,2.40
2023-05-15T08:26:05.406Z,2.32
2023-05-15T08:27:05.459Z,1.91
2023-05-15T08:28:05.913Z,1.77
2023-05-15T08:29:05.471Z,1.44
2023-05-15T08:30:05.462Z,1.39
2023-05-15T08:31:05.545Z,1.34
2023-05-15T08:32:05.519Z,1.29
2023-05-15T08:33:06.048Z,1.21
2023-05-15T08:34:05.591Z,1.18
2023-05-15T08:35:05.646Z,1.12
2023-05-15T08:36:05.769Z,1.07
2023-05-15T08:37:05.728Z,1.04
2023-05-15T08:38:05.789Z,1.01
2023-05-15T08:39:05.880Z,1.01
2023-05-15T08:40:05.851Z,0.96
2023-05-15T08:41:05.903Z,0.94
2023-05-15T08:42:05.972Z,0.85
2023-05-15T08:43:06.404Z,0.81
2023-05-15T08:44:06.084Z,0.79
2023-05-15T08:45:06.111Z,0.78
2023-05-15T08:46:06.261Z,0.90
2023-05-15T08:47:06.266Z,0.91
2023-05-15T08:48:06.323Z,0.94
2023-05-15T08:49:06.312Z,1.01
2023-05-15T08:50:06.293Z,1.02
2023-05-15T08:51:06.356Z,1.12
2023-05-15T08:52:06.364Z,1.13
2023-05-15T08:53:06.375Z,1.18
2023-05-15T08:54:06.409Z,1.24
2023-05-15T08:55:06.409Z,1.31
2023-05-15T08:56:06.426Z,1.34
2023-05-15T08:57:06.461Z,1.35
2023-05-15T08:58:06.439Z,1.37
2023-05-15T08:59:06.445Z,1.34
2023-05-15T09:00:08.725Z,1.38
2023-05-15T09:01:06.493Z,1.38
2023-05-15T09:02:06.515Z,1.34
2023-05-15T09:03:06.642Z,1.33
2023-05-15T09:04:06.632Z,1.35
2023-05-15T09:05:06.567Z,1.42
2023-05-15T09:06:06.580Z,1.35
2023-05-15T09:07:06.546Z,1.38
2023-05-15T09:08:06.565Z,1.47
2023-05-15T09:09:06.555Z,1.47
2023-05-15T09:10:06.561Z,1.55
2023-05-15T09:11:06.534Z,1.62
2023-05-15T09:12:06.528Z,1.62
2023-05-15T09:13:06.527Z,1.46
2023-05-15T09:14:06.532Z,1.62
2023-05-15T09:15:06.541Z,1.63
2023-05-15T09:16:06.537Z,1.72
2023-05-15T09:17:06.637Z,1.81
2023-05-15T09:18:06.648Z,1.73
2023-05-15T09:19:06.620Z,1.61
2023-05-15T09:20:06.640Z,1.71
2023-05-15T09:21:06.715Z,1.81
2023-05-15T09:22:06.755Z,1.88
2023-05-15T09:23:06.786Z,1.88
2023-05-15T09:24:06.846Z,1.92
2023-05-15T09:25:06.908Z,1.84
2023-05-15T09:26:06.950Z,1.93
2023-05-15T09:27:07.006Z,1.97
2023-05-15T09:28:07.083Z,1.94
2023-05-15T09:29:07.112Z,1.94
2023-05-15T09:30:07.167Z,1.86
2023-05-15T09:31:07.252Z,1.85
2023-05-15T09:32:07.323Z,1.80
2023-05-15T09:33:07.469Z,1.77
2023-05-15T09:34:07.311Z,1.59
2023-05-15T09:35:07.345Z,1.23
2023-05-15T09:36:07.311Z,1.20
2023-05-15T09:37:07.288Z,1.08
2023-05-15T09:38:07.314Z,1.02
2023-05-15T09:39:07.317Z,0.69
2023-05-15T09:40:07.376Z,0.56
2023-05-15T09:41:07.382Z,0.56
2023-05-15T09:42:07.419Z,0.50
2023-05-15T09:43:07.474Z,0.49
2023-05-15T09:44:07.532Z,0.50
2023-05-15T09:45:07.587Z,0.50
2023-05-15T09:46:07.802Z,0.47
2023-05-15T09:47:07.811Z,0.48
2023-05-15T09:48:07.798Z,0.51
2023-05-15T09:49:07.705Z,0.50
2023-05-15T09:50:07.704Z,0.50
2023-05-15T09:51:07.825Z,0.51
2023-05-15T09:52:07.744Z,0.50
2023-05-15T09:53:08.042Z,0.51
2023-05-15T09:54:07.818Z,0.55
2023-05-15T09:55:07.839Z,0.50
2023-05-15T09:56:07.873Z,0.50
2023-05-15T09:57:07.912Z,0.50
2023-05-15T09:58:07.958Z,0.50
2023-05-15T09:59:07.995Z,0.51
2023-05-15T10:00:08.041Z,0.50
2023-05-15T10:01:08.117Z,0.50
2023-05-15T10:02:08.163Z,0.50
2023-05-15T10:03:08.275Z,0.51
2023-05-15T10:04:08.307Z,0.52
2023-05-15T10:05:08.414Z,0.50
2023-05-15T10:06:08.449Z,0.53
2023-05-15T10:07:08.472Z,0.54
2023-05-15T10:08:08.526Z,0.52
2023-05-15T10:09:08.597Z,0.54
2023-05-15T10:10:08.622Z,0.58
2023-05-15T10:11:08.733Z,0.55
2023-05-15T10:12:08.750Z,0.55
2023-05-15T10:13:08.797Z,0.51
2023-05-15T10:14:08.924Z,0.52
2023-05-15T10:15:08.908Z,0.53
2023-05-15T10:16:08.996Z,0.51
2023-05-15T10:17:09.027Z,0.53
2023-05-15T10:18:09.246Z,0.57
2023-05-15T10:19:09.212Z,0.55
2023-05-15T10:20:09.172Z,0.57
2023-05-15T10:21:09.230Z,0.58
2023-05-15T10:22:09.269Z,0.58
2023-05-15T10:23:09.367Z,0.56
2023-05-15T10:24:09.366Z,0.55
2023-05-15T10:25:09.433Z,0.50
2023-05-15T10:26:09.484Z,0.50
2023-05-15T10:27:09.536Z,0.51
2023-05-15T10:28:09.957Z,0.55
2023-05-15T10:29:09.607Z,0.52
2023-05-15T10:30:09.559Z,0.85
2023-05-15T10:31:09.672Z,0.99
2023-05-15T10:32:09.599Z,0.87
2023-05-15T10:33:10.180Z,0.78
2023-05-15T10:34:09.655Z,0.77
2023-05-15T10:35:09.729Z,0.78
2023-05-15T10:36:09.755Z,0.77
2023-05-15T10:37:09.800Z,0.77
2023-05-15T10:38:09.853Z,0.85
2023-05-15T10:39:09.943Z,0.82
2023-05-15T10:40:09.970Z,0.77
2023-05-15T10:41:17.511Z,0.78
2023-05-15T10:42:11.013Z,0.73
2023-05-15T10:43:10.005Z,0.73
2023-05-15T10:44:10.009Z,0.73
2023-05-15T10:45:10.032Z,0.71
2023-05-15T10:46:09.980Z,0.67
2023-05-15T10:47:10.015Z,0.70
2023-05-15T10:48:10.003Z,0.69
2023-05-15T10:49:09.981Z,0.65
2023-05-15T10:50:10.021Z,0.66
2023-05-15T10:51:11.183Z,0.67
2023-05-15T10:52:10.098Z,0.66
2023-05-15T10:53:10.149Z,0.72
2023-05-15T10:54:10.235Z,0.71
2023-05-15T10:55:10.292Z,0.75
2023-05-15T10:56:10.418Z,0.70
2023-05-15T10:57:10.425Z,0.67
2023-05-15T10:58:10.465Z,0.62
2023-05-15T10:59:10.571Z,0.54
2023-05-15T11:00:10.540Z,0.55
2023-05-15T11:01:10.568Z,0.53
2023-05-15T11:02:10.543Z,0.52
2023-05-15T11:03:11.105Z,0.51
2023-05-15T11:04:10.642Z,0.52
2023-05-15T11:05:10.538Z,0.59
2023-05-15T11:06:10.541Z,0.61
2023-05-15T11:07:10.553Z,0.65
2023-05-15T11:08:10.540Z,0.70
2023-05-15T11:09:10.545Z,0.75
2023-05-15T11:10:10.549Z,0.77
2023-05-15T11:11:10.580Z,0.83
2023-05-15T11:12:10.638Z,0.82
2023-05-15T11:13:10.674Z,0.77
2023-05-15T11:14:10.738Z,0.84
2023-05-15T11:15:10.808Z,0.82
2023-05-15T11:16:12.105Z,0.81
2023-05-15T11:17:11.219Z,0.82
2023-05-15T11:18:11.213Z,0.87
2023-05-15T11:19:11.292Z,0.87
2023-05-15T11:20:11.304Z,0.84
2023-05-15T11:21:11.353Z,0.97
2023-05-15T11:22:11.425Z,0.92
2023-05-15T11:23:11.473Z,0.98
2023-05-15T11:24:11.983Z,0.90
2023-05-15T11:25:11.590Z,0.86
2023-05-15T11:26:11.642Z,0.91
2023-05-15T11:27:11.709Z,0.93
2023-05-15T11:28:12.500Z,0.98
2023-05-15T11:29:11.993Z,0.94
2023-05-15T11:30:11.875Z,1.01
2023-05-15T11:31:12.066Z,0.99
2023-05-15T11:32:11.986Z,0.91
2023-05-15T11:33:12.067Z,0.95
2023-05-15T11:34:12.096Z,0.88
2023-05-15T11:35:12.148Z,0.90
2023-05-15T11:36:12.195Z,0.80
2023-05-15T11:37:12.260Z,0.87
2023-05-15T11:38:12.315Z,0.77
2023-05-15T11:39:12.391Z,0.70
2023-05-15T11:40:12.493Z,0.70
2023-05-15T11:41:12.421Z,0.72
2023-05-15T11:42:12.416Z,0.79
2023-05-15T11:43:12.445Z,0.83
2023-05-15T11:44:12.482Z,0.84
2023-05-15T11:45:12.519Z,0.95
2023-05-15T11:46:12.649Z,0.95
2023-05-15T11:47:12.632Z,0.85
2023-05-15T11:48:12.774Z,0.85
2023-05-15T11:49:12.739Z,0.83
2023-05-15T11:50:12.821Z,0.75
2023-05-15T11:51:12.794Z,0.67
2023-05-15T11:52:12.809Z,0.63
2023-05-15T11:53:12.789Z,0.65
2023-05-15T11:54:12.818Z,0.70
2023-05-15T11:55:12.785Z,0.67
2023-05-15T11:56:12.809Z,0.70
2023-05-15T11:57:12.787Z,0.69
2023-05-15T11:58:12.793Z,0.68
2023-05-15T11:59:12.819Z,0.75
2023-05-15T12:00:12.837Z,0.75
2023-05-15T12:01:12.819Z,0.75
2023-05-15T12:02:12.857Z,0.67
2023-05-15T12:03:12.967Z,0.63
2023-05-15T12:04:13.202Z,0.63
2023-05-15T12:05:12.895Z,0.72
2023-05-15T12:06:12.862Z,0.61
2023-05-15T12:07:12.888Z,0.57
2023-05-15T12:08:12.873Z,0.55
2023-05-15T12:09:12.897Z,0.57
2023-05-15T12:10:12.911Z,0.53
2023-05-15T12:11:12.906Z,0.50
2023-05-15T12:12:12.917Z,0.49
2023-05-15T12:13:12.903Z,0.50
2023-05-15T12:14:12.921Z,0.53
2023-05-15T12:15:12.905Z,0.54
2023-05-15T12:16:13.013Z,0.55
2023-05-15T12:17:12.918Z,0.52
2023-05-15T12:18:12.922Z,0.61
2023-05-15T12:19:12.961Z,0.57
2023-05-15T12:20:12.961Z,0.50
2023-05-15T12:21:12.933Z,0.51
2023-05-15T12:22:12.935Z,0.50
2023-05-15T12:23:12.938Z,0.50
2023-05-15T12:24:12.959Z,0.50
2023-05-15T12:25:12.960Z,0.59
2023-05-15T12:26:12.954Z,0.61
2023-05-15T12:27:12.963Z,0.64
2023-05-15T12:28:12.962Z,0.64
2023-05-15T12:29:12.990Z,0.70
2023-05-15T12:30:12.976Z,0.78
2023-05-15T12:31:12.999Z,0.71
2023-05-15T12:32:13.084Z,0.75
2023-05-15T12:33:13.051Z,0.69
2023-05-15T12:34:13.029Z,0.61
2023-05-15T12:35:13.008Z,0.57
2023-05-15T12:36:13.007Z,0.55
2023-05-15T12:37:13.012Z,0.54
2023-05-15T12:38:13.013Z,0.54
2023-05-15T12:39:13.018Z,0.62
2023-05-15T12:40:13.033Z,0.66
2023-05-15T12:41:13.014Z,0.68
2023-05-15T12:42:13.018Z,0.70
2023-05-15T12:43:13.009Z,0.77
2023-05-15T12:44:13.015Z,0.81
2023-05-15T12:45:13.003Z,0.80
2023-05-15T12:46:13.108Z,0.81
2023-05-15T12:47:13.067Z,0.84
2023-05-15T12:48:13.124Z,0.75
2023-05-15T12:49:13.163Z,0.72
2023-05-15T12:50:13.237Z,0.74
2023-05-15T12:51:13.254Z,0.85
2023-05-15T12:52:13.317Z,0.88
2023-05-15T12:53:13.367Z,0.88
2023-05-15T12:54:13.426Z,0.84
2023-05-15T12:55:13.481Z,0.88
2023-05-15T12:56:13.546Z,0.97
2023-05-15T12:57:13.608Z,0.98
2023-05-15T12:58:13.690Z,1.12
2023-05-15T12:59:13.737Z,1.13
2023-05-15T13:00:13.782Z,1.18
2023-05-15T13:01:13.869Z,1.21
2023-05-15T13:02:13.964Z,1.23
2023-05-15T13:03:14.120Z,1.12
2023-05-15T13:04:14.019Z,1.07
2023-05-15T13:05:14.092Z,1.18
2023-05-15T13:06:14.126Z,1.20
2023-05-15T13:07:14.180Z,1.17
2023-05-15T13:08:14.232Z,1.25
2023-05-15T13:09:14.265Z,1.31
2023-05-15T13:10:14.330Z,1.14
2023-05-15T13:11:14.496Z,1.05
2023-05-15T13:12:14.425Z,1.18
2023-05-15T13:13:14.483Z,1.10
2023-05-15T13:14:14.544Z,1.09
2023-05-15T13:15:14.600Z,1.05
2023-05-15T13:16:14.712Z,1.01
2023-05-15T13:17:14.738Z,0.98
2023-05-15T13:18:14.829Z,0.93
2023-05-15T13:19:14.892Z,0.96
2023-05-15T13:20:14.932Z,0.92